Aviation Digital Data Service (ADDS)

Output produced by METARs form (1305 UTC 11 December 2018)
found at http://www.aviationweather.gov/metar/data/
 
KGXY 111156Z AUTO 00000KT 10SM CLR M09/M12 A2999 RMK AO2 SLP203 T10891117 11033 21094 55002 FZRANO